sensor_id;sensor_type;location;lat;lon;timestamp;P1;P2;P0
43280;PMS5003;62175;49.416;8.690;2023-05-07T00:02:14;4;4;
43280;PMS5003;62175;49.416;8.690;2023-05-07T00:04:41;5;3;
43280;PMS5003;62175;49.416;8.690;2023-05-07T00:07:08;2;2;
43280;PMS5003;62175;49.416;8.690;2023-05-07T00:09:36;4;4;
43280;PMS5003;62175;49.416;8.690;2023-05-07T00:12:03;3;3;
43280;PMS5003;62175;49.416;8.690;2023-05-07T00:14:31;2;2;
43280;PMS5003;62175;49.416;8.690;2023-05-07T00:16:59;3;3;
43280;PMS5003;62175;49.416;8.690;2023-05-07T00:19:27;4;4;
43280;PMS5003;62175;49.416;8.690;2023-05-07T00:21:54;4;4;
43280;PMS5003;62175;49.416;8.690;2023-05-07T00:24:21;4;3;
43280;PMS5003;62175;49.416;8.690;2023-05-07T00:26:48;3;3;
43280;PMS5003;62175;49.416;8.690;2023-05-07T00:29:15;3;3;
43280;PMS5003;62175;49.416;8.690;2023-05-07T00:31:43;3;3;
43280;PMS5003;62175;49.416;8.690;2023-05-07T00:34:10;2;2;
43280;PMS5003;62175;49.416;8.690;2023-05-07T00:36:37;4;4;
43280;PMS5003;62175;49.416;8.690;2023-05-07T00:39:06;4;4;
43280;PMS5003;62175;49.416;8.690;2023-05-07T00:41:34;2;2;
43280;PMS5003;62175;49.416;8.690;2023-05-07T00:44:07;4;4;
43280;PMS5003;62175;49.416;8.690;2023-05-07T00:46:36;2;2;
43280;PMS5003;62175;49.416;8.690;2023-05-07T00:49:03;3;3;
43280;PMS5003;62175;49.416;8.690;2023-05-07T00:51:31;4;4;
43280;PMS5003;62175;49.416;8.690;2023-05-07T00:54:00;4;4;
43280;PMS5003;62175;49.416;8.690;2023-05-07T00:56:30;4;4;
43280;PMS5003;62175;49.416;8.690;2023-05-07T00:58:58;3;3;
43280;PMS5003;62175;49.416;8.690;2023-05-07T01:01:27;5;4;
43280;PMS5003;62175;49.416;8.690;2023-05-07T01:03:55;3;3;
43280;PMS5003;62175;49.416;8.690;2023-05-07T01:06:23;3;3;
43280;PMS5003;62175;49.416;8.690;2023-05-07T01:08:52;3;2;
43280;PMS5003;62175;49.416;8.690;2023-05-07T01:11:20;4;4;
43280;PMS5003;62175;49.416;8.690;2023-05-07T01:13:48;4;4;
43280;PMS5003;62175;49.416;8.690;2023-05-07T01:16:16;4;4;
43280;PMS5003;62175;49.416;8.690;2023-05-07T01:18:44;4;4;
43280;PMS5003;62175;49.416;8.690;2023-05-07T01:21:12;6;6;
43280;PMS5003;62175;49.416;8.690;2023-05-07T01:23:43;5;5;
43280;PMS5003;62175;49.416;8.690;2023-05-07T01:26:12;3;3;
43280;PMS5003;62175;49.416;8.690;2023-05-07T01:28:40;3;3;
43280;PMS5003;62175;49.416;8.690;2023-05-07T01:31:08;4;4;
43280;PMS5003;62175;49.416;8.690;2023-05-07T01:33:38;3;3;
43280;PMS5003;62175;49.416;8.690;2023-05-07T01:36:09;3;3;
43280;PMS5003;62175;49.416;8.690;2023-05-07T01:38:38;3;3;
43280;PMS5003;62175;49.416;8.690;2023-05-07T01:41:07;3;3;
43280;PMS5003;62175;49.416;8.690;2023-05-07T01:43:34;2;2;
43280;PMS5003;62175;49.416;8.690;2023-05-07T01:46:02;1;1;
43280;PMS5003;62175;49.416;8.690;2023-05-07T01:48:31;5;4;
43280;PMS5003;62175;49.416;8.690;2023-05-07T01:51:00;5;5;
43280;PMS5003;62175;49.416;8.690;2023-05-07T01:53:35;3;3;
43280;PMS5003;62175;49.416;8.690;2023-05-07T01:56:04;2;2;
43280;PMS5003;62175;49.416;8.690;2023-05-07T01:58:33;4;3;
43280;PMS5003;62175;49.416;8.690;2023-05-07T02:01:01;3;3;
43280;PMS5003;62175;49.416;8.690;2023-05-07T02:03:29;4;4;
43280;PMS5003;62175;49.416;8.690;2023-05-07T02:05:56;3;3;
43280;PMS5003;62175;49.416;8.690;2023-05-07T02:08:23;3;3;
43280;PMS5003;62175;49.416;8.690;2023-05-07T02:10:51;4;4;
43280;PMS5003;62175;49.416;8.690;2023-05-07T02:13:18;3;3;
43280;PMS5003;62175;49.416;8.690;2023-05-07T02:15:44;3;3;
43280;PMS5003;62175;49.416;8.690;2023-05-07T02:18:12;3;3;
43280;PMS5003;62175;49.416;8.690;2023-05-07T02:20:39;3;3;
43280;PMS5003;62175;49.416;8.690;2023-05-07T02:23:08;3;2;
43280;PMS5003;62175;49.416;8.690;2023-05-07T02:25:36;3;3;
43280;PMS5003;62175;49.416;8.690;2023-05-07T02:28:05;3;3;
43280;PMS5003;62175;49.416;8.690;2023-05-07T02:30:32;3;3;
43280;PMS5003;62175;49.416;8.690;2023-05-07T02:33:00;2;2;
43280;PMS5003;62175;49.416;8.690;2023-05-07T02:35:28;2;2;
43280;PMS5003;62175;49.416;8.690;2023-05-07T02:37:57;3;3;
43280;PMS5003;62175;49.416;8.690;2023-05-07T02:40:26;3;3;
43280;PMS5003;62175;49.416;8.690;2023-05-07T02:42:55;4;3;
43280;PMS5003;62175;49.416;8.690;2023-05-07T02:45:24;3;3;
43280;PMS5003;62175;49.416;8.690;2023-05-07T02:48:03;4;4;
43280;PMS5003;62175;49.416;8.690;2023-05-07T02:50:36;2;2;
43280;PMS5003;62175;49.416;8.690;2023-05-07T02:53:05;4;3;
43280;PMS5003;62175;49.416;8.690;2023-05-07T02:55:32;3;3;
43280;PMS5003;62175;49.416;8.690;2023-05-07T02:58:00;4;4;
43280;PMS5003;62175;49.416;8.690;2023-05-07T03:00:28;3;3;
43280;PMS5003;62175;49.416;8.690;2023-05-07T03:02:55;3;3;
43280;PMS5003;62175;49.416;8.690;2023-05-07T03:05:22;3;3;
43280;PMS5003;62175;49.416;8.690;2023-05-07T03:07:50;3;3;
43280;PMS5003;62175;49.416;8.690;2023-05-07T03:10:17;3;3;
43280;PMS5003;62175;49.416;8.690;2023-05-07T03:12:44;3;3;
43280;PMS5003;62175;49.416;8.690;2023-05-07T03:15:12;4;4;
43280;PMS5003;62175;49.416;8.690;2023-05-07T03:17:40;3;3;
43280;PMS5003;62175;49.416;8.690;2023-05-07T03:20:08;4;4;
43280;PMS5003;62175;49.416;8.690;2023-05-07T03:22:36;4;4;
43280;PMS5003;62175;49.416;8.690;2023-05-07T03:25:03;3;3;
43280;PMS5003;62175;49.416;8.690;2023-05-07T03:27:31;4;4;
43280;PMS5003;62175;49.416;8.690;2023-05-07T03:29:57;5;5;
43280;PMS5003;62175;49.416;8.690;2023-05-07T03:32:24;3;3;
43280;PMS5003;62175;49.416;8.690;2023-05-07T03:34:52;4;3;
43280;PMS5003;62175;49.416;8.690;2023-05-07T03:37:19;5;4;
43280;PMS5003;62175;49.416;8.690;2023-05-07T03:39:47;5;4;
43280;PMS5003;62175;49.416;8.690;2023-05-07T03:42:14;4;4;
43280;PMS5003;62175;49.416;8.690;2023-05-07T03:44:42;4;4;
43280;PMS5003;62175;49.416;8.690;2023-05-07T03:47:10;4;4;
43280;PMS5003;62175;49.416;8.690;2023-05-07T03:49:38;4;4;
43280;PMS5003;62175;49.416;8.690;2023-05-07T03:52:07;5;5;
43280;PMS5003;62175;49.416;8.690;2023-05-07T03:54:34;5;5;
43280;PMS5003;62175;49.416;8.690;2023-05-07T03:57:02;3;3;
43280;PMS5003;62175;49.416;8.690;2023-05-07T03:59:31;5;5;
43280;PMS5003;62175;49.416;8.690;2023-05-07T04:01:58;4;4;
43280;PMS5003;62175;49.416;8.690;2023-05-07T04:05:04;6;6;
43280;PMS5003;62175;49.416;8.690;2023-05-07T04:07:32;5;5;
43280;PMS5003;62175;49.416;8.690;2023-05-07T04:09:59;6;5;
43280;PMS5003;62175;49.416;8.690;2023-05-07T04:12:27;4;3;
43280;PMS5003;62175;49.416;8.690;2023-05-07T04:14:56;4;4;
43280;PMS5003;62175;49.416;8.690;2023-05-07T04:17:23;5;5;
43280;PMS5003;62175;49.416;8.690;2023-05-07T04:20:08;5;5;
43280;PMS5003;62175;49.416;8.690;2023-05-07T04:22:36;5;4;
43280;PMS5003;62175;49.416;8.690;2023-05-07T04:25:04;3;3;
43280;PMS5003;62175;49.416;8.690;2023-05-07T04:27:32;4;4;
43280;PMS5003;62175;49.416;8.690;2023-05-07T04:29:59;5;5;
43280;PMS5003;62175;49.416;8.690;2023-05-07T04:32:26;4;4;
43280;PMS5003;62175;49.416;8.690;2023-05-07T04:34:53;5;5;
43280;PMS5003;62175;49.416;8.690;2023-05-07T04:37:20;5;5;
43280;PMS5003;62175;49.416;8.690;2023-05-07T04:39:47;4;4;
43280;PMS5003;62175;49.416;8.690;2023-05-07T04:42:14;6;5;
43280;PMS5003;62175;49.416;8.690;2023-05-07T04:44:42;5;5;
43280;PMS5003;62175;49.416;8.690;2023-05-07T04:47:10;6;6;
43280;PMS5003;62175;49.416;8.690;2023-05-07T04:49:37;4;4;
43280;PMS5003;62175;49.416;8.690;2023-05-07T04:52:05;3;3;
43280;PMS5003;62175;49.416;8.690;2023-05-07T04:54:32;4;4;
43280;PMS5003;62175;49.416;8.690;2023-05-07T04:56:59;5;5;
43280;PMS5003;62175;49.416;8.690;2023-05-07T04:59:26;4;4;
43280;PMS5003;62175;49.416;8.690;2023-05-07T05:01:53;4;4;
43280;PMS5003;62175;49.416;8.690;2023-05-07T05:04:20;3;3;
43280;PMS5003;62175;49.416;8.690;2023-05-07T05:06:47;2;2;
43280;PMS5003;62175;49.416;8.690;2023-05-07T05:09:14;3;3;
43280;PMS5003;62175;49.416;8.690;2023-05-07T05:11:41;3;3;
43280;PMS5003;62175;49.416;8.690;2023-05-07T05:14:08;4;4;
43280;PMS5003;62175;49.416;8.690;2023-05-07T05:16:35;3;3;
43280;PMS5003;62175;49.416;8.690;2023-05-07T05:19:02;5;5;
43280;PMS5003;62175;49.416;8.690;2023-05-07T05:21:29;5;5;
43280;PMS5003;62175;49.416;8.690;2023-05-07T05:23:57;4;4;
43280;PMS5003;62175;49.416;8.690;2023-05-07T05:26:24;4;4;
43280;PMS5003;62175;49.416;8.690;2023-05-07T05:28:51;5;5;
43280;PMS5003;62175;49.416;8.690;2023-05-07T05:31:18;5;5;
43280;PMS5003;62175;49.416;8.690;2023-05-07T05:33:45;3;3;
43280;PMS5003;62175;49.416;8.690;2023-05-07T05:36:12;4;4;
43280;PMS5003;62175;49.416;8.690;2023-05-07T05:38:39;4;3;
43280;PMS5003;62175;49.416;8.690;2023-05-07T05:41:06;3;3;
43280;PMS5003;62175;49.416;8.690;2023-05-07T05:43:33;6;4;
43280;PMS5003;62175;49.416;8.690;2023-05-07T05:46:00;3;3;
43280;PMS5003;62175;49.416;8.690;2023-05-07T05:48:28;4;4;
43280;PMS5003;62175;49.416;8.690;2023-05-07T05:50:56;3;3;
43280;PMS5003;62175;49.416;8.690;2023-05-07T05:53:23;3;3;
43280;PMS5003;62175;49.416;8.690;2023-05-07T05:55:51;3;3;
43280;PMS5003;62175;49.416;8.690;2023-05-07T05:58:18;4;3;
43280;PMS5003;62175;49.416;8.690;2023-05-07T06:00:45;4;3;
43280;PMS5003;62175;49.416;8.690;2023-05-07T06:03:13;4;4;
43280;PMS5003;62175;49.416;8.690;2023-05-07T06:05:40;4;4;
43280;PMS5003;62175;49.416;8.690;2023-05-07T06:08:07;3;3;
43280;PMS5003;62175;49.416;8.690;2023-05-07T06:10:35;5;5;
43280;PMS5003;62175;49.416;8.690;2023-05-07T06:13:03;5;4;
43280;PMS5003;62175;49.416;8.690;2023-05-07T06:15:33;4;4;
43280;PMS5003;62175;49.416;8.690;2023-05-07T06:18:01;4;4;
43280;PMS5003;62175;49.416;8.690;2023-05-07T06:20:28;3;3;
43280;PMS5003;62175;49.416;8.690;2023-05-07T06:22:55;2;2;
43280;PMS5003;62175;49.416;8.690;2023-05-07T06:25:22;3;3;
43280;PMS5003;62175;49.416;8.690;2023-05-07T06:27:49;4;3;
43280;PMS5003;62175;49.416;8.690;2023-05-07T06:30:16;3;3;
43280;PMS5003;62175;49.416;8.690;2023-05-07T06:32:43;3;3;
43280;PMS5003;62175;49.416;8.690;2023-05-07T06:35:15;4;4;
43280;PMS5003;62175;49.416;8.690;2023-05-07T06:37:42;3;3;
43280;PMS5003;62175;49.416;8.690;2023-05-07T06:40:10;3;3;
43280;PMS5003;62175;49.416;8.690;2023-05-07T06:42:37;7;6;
43280;PMS5003;62175;49.416;8.690;2023-05-07T06:45:06;9;9;
43280;PMS5003;62175;49.416;8.690;2023-05-07T06:47:35;5;5;
43280;PMS5003;62175;49.416;8.690;2023-05-07T06:50:02;11;11;
43280;PMS5003;62175;49.416;8.690;2023-05-07T06:52:29;7;7;
43280;PMS5003;62175;49.416;8.690;2023-05-07T06:54:56;10;10;
43280;PMS5003;62175;49.416;8.690;2023-05-07T06:57:23;10;9;
43280;PMS5003;62175;49.416;8.690;2023-05-07T06:59:50;8;7;
43280;PMS5003;62175;49.416;8.690;2023-05-07T07:02:17;7;7;
43280;PMS5003;62175;49.416;8.690;2023-05-07T07:04:44;7;7;
43280;PMS5003;62175;49.416;8.690;2023-05-07T07:07:11;8;8;
43280;PMS5003;62175;49.416;8.690;2023-05-07T07:09:39;10;9;
43280;PMS5003;62175;49.416;8.690;2023-05-07T07:12:06;7;7;
43280;PMS5003;62175;49.416;8.690;2023-05-07T07:14:33;7;6;
43280;PMS5003;62175;49.416;8.690;2023-05-07T07:17:00;6;6;
43280;PMS5003;62175;49.416;8.690;2023-05-07T07:19:28;8;8;
43280;PMS5003;62175;49.416;8.690;2023-05-07T07:21:55;7;6;
43280;PMS5003;62175;49.416;8.690;2023-05-07T07:24:22;6;6;
43280;PMS5003;62175;49.416;8.690;2023-05-07T07:26:49;7;7;
43280;PMS5003;62175;49.416;8.690;2023-05-07T07:29:16;6;6;
43280;PMS5003;62175;49.416;8.690;2023-05-07T07:31:43;8;7;
43280;PMS5003;62175;49.416;8.690;2023-05-07T07:34:10;6;6;
43280;PMS5003;62175;49.416;8.690;2023-05-07T07:36:37;8;8;
43280;PMS5003;62175;49.416;8.690;2023-05-07T07:39:05;8;7;
43280;PMS5003;62175;49.416;8.690;2023-05-07T07:41:32;8;8;
43280;PMS5003;62175;49.416;8.690;2023-05-07T07:43:59;7;7;
43280;PMS5003;62175;49.416;8.690;2023-05-07T07:46:26;9;8;
43280;PMS5003;62175;49.416;8.690;2023-05-07T07:48:53;9;7;
43280;PMS5003;62175;49.416;8.690;2023-05-07T07:51:20;6;6;
43280;PMS5003;62175;49.416;8.690;2023-05-07T07:53:47;6;6;
43280;PMS5003;62175;49.416;8.690;2023-05-07T07:56:14;6;6;
43280;PMS5003;62175;49.416;8.690;2023-05-07T07:59:00;7;7;
43280;PMS5003;62175;49.416;8.690;2023-05-07T08:01:29;5;5;
43280;PMS5003;62175;49.416;8.690;2023-05-07T08:03:56;5;5;
43280;PMS5003;62175;49.416;8.690;2023-05-07T08:06:23;5;4;
43280;PMS5003;62175;49.416;8.690;2023-05-07T08:08:50;7;7;
43280;PMS5003;62175;49.416;8.690;2023-05-07T08:11:17;7;6;
43280;PMS5003;62175;49.416;8.690;2023-05-07T08:13:45;6;6;
43280;PMS5003;62175;49.416;8.690;2023-05-07T08:16:12;5;5;
43280;PMS5003;62175;49.416;8.690;2023-05-07T08:18:39;5;4;
43280;PMS5003;62175;49.416;8.690;2023-05-07T08:21:06;6;6;
43280;PMS5003;62175;49.416;8.690;2023-05-07T08:23:33;6;6;
43280;PMS5003;62175;49.416;8.690;2023-05-07T08:26:00;7;6;
43280;PMS5003;62175;49.416;8.690;2023-05-07T08:28:27;5;5;
43280;PMS5003;62175;49.416;8.690;2023-05-07T08:30:54;7;7;
43280;PMS5003;62175;49.416;8.690;2023-05-07T08:33:21;5;5;
43280;PMS5003;62175;49.416;8.690;2023-05-07T08:35:48;7;7;
43280;PMS5003;62175;49.416;8.690;2023-05-07T08:38:15;9;8;
43280;PMS5003;62175;49.416;8.690;2023-05-07T08:40:42;8;8;
43280;PMS5003;62175;49.416;8.690;2023-05-07T08:43:09;7;7;
43280;PMS5003;62175;49.416;8.690;2023-05-07T08:45:39;8;7;
43280;PMS5003;62175;49.416;8.690;2023-05-07T08:48:08;7;7;
43280;PMS5003;62175;49.416;8.690;2023-05-07T08:50:41;7;7;
43280;PMS5003;62175;49.416;8.690;2023-05-07T08:53:09;7;7;
43280;PMS5003;62175;49.416;8.690;2023-05-07T08:55:36;6;6;
43280;PMS5003;62175;49.416;8.690;2023-05-07T08:58:03;8;7;
43280;PMS5003;62175;49.416;8.690;2023-05-07T09:00:29;10;9;
43280;PMS5003;62175;49.416;8.690;2023-05-07T09:02:56;5;5;
43280;PMS5003;62175;49.416;8.690;2023-05-07T09:05:23;8;7;
43280;PMS5003;62175;49.416;8.690;2023-05-07T09:07:50;6;6;
43280;PMS5003;62175;49.416;8.690;2023-05-07T09:10:17;7;7;
43280;PMS5003;62175;49.416;8.690;2023-05-07T09:12:46;8;8;
43280;PMS5003;62175;49.416;8.690;2023-05-07T09:15:13;6;6;
43280;PMS5003;62175;49.416;8.690;2023-05-07T09:17:40;6;6;
43280;PMS5003;62175;49.416;8.690;2023-05-07T09:20:09;5;5;
43280;PMS5003;62175;49.416;8.690;2023-05-07T09:22:37;9;8;
43280;PMS5003;62175;49.416;8.690;2023-05-07T09:25:05;6;6;
43280;PMS5003;62175;49.416;8.690;2023-05-07T09:27:33;7;7;
43280;PMS5003;62175;49.416;8.690;2023-05-07T09:30:02;8;7;
43280;PMS5003;62175;49.416;8.690;2023-05-07T09:32:32;7;7;
43280;PMS5003;62175;49.416;8.690;2023-05-07T09:35:00;5;5;
43280;PMS5003;62175;49.416;8.690;2023-05-07T09:37:28;6;6;
43280;PMS5003;62175;49.416;8.690;2023-05-07T09:39:57;8;8;
43280;PMS5003;62175;49.416;8.690;2023-05-07T09:42:25;6;6;
43280;PMS5003;62175;49.416;8.690;2023-05-07T09:44:52;7;6;
43280;PMS5003;62175;49.416;8.690;2023-05-07T09:47:20;7;7;
43280;PMS5003;62175;49.416;8.690;2023-05-07T09:49:50;7;7;
43280;PMS5003;62175;49.416;8.690;2023-05-07T09:52:22;7;7;
43280;PMS5003;62175;49.416;8.690;2023-05-07T09:54:50;9;7;
43280;PMS5003;62175;49.416;8.690;2023-05-07T09:57:19;6;6;
43280;PMS5003;62175;49.416;8.690;2023-05-07T09:59:46;9;8;
43280;PMS5003;62175;49.416;8.690;2023-05-07T10:02:15;7;7;
43280;PMS5003;62175;49.416;8.690;2023-05-07T10:04:44;8;7;
43280;PMS5003;62175;49.416;8.690;2023-05-07T10:07:13;8;8;
43280;PMS5003;62175;49.416;8.690;2023-05-07T10:09:40;7;7;
43280;PMS5003;62175;49.416;8.690;2023-05-07T10:12:11;7;7;
43280;PMS5003;62175;49.416;8.690;2023-05-07T10:14:38;7;7;
43280;PMS5003;62175;49.416;8.690;2023-05-07T10:17:06;7;6;
43280;PMS5003;62175;49.416;8.690;2023-05-07T10:19:34;8;7;
43280;PMS5003;62175;49.416;8.690;2023-05-07T10:22:05;8;7;
43280;PMS5003;62175;49.416;8.690;2023-05-07T10:24:35;7;7;
43280;PMS5003;62175;49.416;8.690;2023-05-07T10:27:04;10;9;
43280;PMS5003;62175;49.416;8.690;2023-05-07T10:29:36;7;7;
43280;PMS5003;62175;49.416;8.690;2023-05-07T10:32:14;8;7;
43280;PMS5003;62175;49.416;8.690;2023-05-07T10:34:56;8;8;
43280;PMS5003;62175;49.416;8.690;2023-05-07T10:37:28;7;7;
43280;PMS5003;62175;49.416;8.690;2023-05-07T10:39:56;10;7;
43280;PMS5003;62175;49.416;8.690;2023-05-07T10:42:23;7;7;
43280;PMS5003;62175;49.416;8.690;2023-05-07T10:44:51;9;7;
43280;PMS5003;62175;49.416;8.690;2023-05-07T10:47:18;6;6;
43280;PMS5003;62175;49.416;8.690;2023-05-07T10:50:49;7;7;
43280;PMS5003;62175;49.416;8.690;2023-05-07T10:53:45;7;7;
43280;PMS5003;62175;49.416;8.690;2023-05-07T10:56:27;7;7;
43280;PMS5003;62175;49.416;8.690;2023-05-07T10:58:54;7;7;
43280;PMS5003;62175;49.416;8.690;2023-05-07T11:02:13;6;6;
43280;PMS5003;62175;49.416;8.690;2023-05-07T11:04:40;7;6;
43280;PMS5003;62175;49.416;8.690;2023-05-07T11:07:24;7;6;
43280;PMS5003;62175;49.416;8.690;2023-05-07T11:09:58;8;7;
43280;PMS5003;62175;49.416;8.690;2023-05-07T11:12:59;7;7;
43280;PMS5003;62175;49.416;8.690;2023-05-07T11:15:43;8;7;
43280;PMS5003;62175;49.416;8.690;2023-05-07T11:18:12;6;6;
43280;PMS5003;62175;49.416;8.690;2023-05-07T11:20:44;6;5;
43280;PMS5003;62175;49.416;8.690;2023-05-07T11:24:21;6;6;
43280;PMS5003;62175;49.416;8.690;2023-05-07T11:26:48;7;7;
43280;PMS5003;62175;49.416;8.690;2023-05-07T11:29:16;8;7;
43280;PMS5003;62175;49.416;8.690;2023-05-07T11:31:48;8;8;
43280;PMS5003;62175;49.416;8.690;2023-05-07T11:34:15;5;5;
43280;PMS5003;62175;49.416;8.690;2023-05-07T11:36:48;7;5;
43280;PMS5003;62175;49.416;8.690;2023-05-07T11:39:24;9;7;
43280;PMS5003;62175;49.416;8.690;2023-05-07T11:41:52;7;6;
43280;PMS5003;62175;49.416;8.690;2023-05-07T11:44:19;5;5;
43280;PMS5003;62175;49.416;8.690;2023-05-07T11:46:46;5;5;
43280;PMS5003;62175;49.416;8.690;2023-05-07T11:49:16;6;6;
43280;PMS5003;62175;49.416;8.690;2023-05-07T11:51:43;8;6;
43280;PMS5003;62175;49.416;8.690;2023-05-07T11:54:15;5;5;
43280;PMS5003;62175;49.416;8.690;2023-05-07T11:56:43;5;4;
43280;PMS5003;62175;49.416;8.690;2023-05-07T11:59:11;7;7;
43280;PMS5003;62175;49.416;8.690;2023-05-07T12:01:44;4;4;
43280;PMS5003;62175;49.416;8.690;2023-05-07T12:04:12;6;6;
43280;PMS5003;62175;49.416;8.690;2023-05-07T12:06:39;4;4;
43280;PMS5003;62175;49.416;8.690;2023-05-07T12:09:06;5;5;
43280;PMS5003;62175;49.416;8.690;2023-05-07T12:11:34;3;3;
43280;PMS5003;62175;49.416;8.690;2023-05-07T12:14:03;7;6;
43280;PMS5003;62175;49.416;8.690;2023-05-07T12:16:29;5;5;
43280;PMS5003;62175;49.416;8.690;2023-05-07T12:18:58;6;5;
43280;PMS5003;62175;49.416;8.690;2023-05-07T12:21:26;5;5;
43280;PMS5003;62175;49.416;8.690;2023-05-07T12:23:53;5;5;
43280;PMS5003;62175;49.416;8.690;2023-05-07T12:26:22;7;5;
43280;PMS5003;62175;49.416;8.690;2023-05-07T12:28:49;7;7;
43280;PMS5003;62175;49.416;8.690;2023-05-07T12:31:16;6;5;
43280;PMS5003;62175;49.416;8.690;2023-05-07T12:33:43;6;6;
43280;PMS5003;62175;49.416;8.690;2023-05-07T12:36:12;5;5;
43280;PMS5003;62175;49.416;8.690;2023-05-07T12:38:40;6;5;
43280;PMS5003;62175;49.416;8.690;2023-05-07T12:41:08;5;5;
43280;PMS5003;62175;49.416;8.690;2023-05-07T12:43:37;6;6;
43280;PMS5003;62175;49.416;8.690;2023-05-07T12:46:06;5;5;
43280;PMS5003;62175;49.416;8.690;2023-05-07T12:48:35;7;6;
43280;PMS5003;62175;49.416;8.690;2023-05-07T12:51:05;7;6;
43280;PMS5003;62175;49.416;8.690;2023-05-07T12:53:32;5;5;
43280;PMS5003;62175;49.416;8.690;2023-05-07T12:55:59;7;6;
43280;PMS5003;62175;49.416;8.690;2023-05-07T12:58:27;6;6;
43280;PMS5003;62175;49.416;8.690;2023-05-07T13:00:57;5;5;
43280;PMS5003;62175;49.416;8.690;2023-05-07T13:03:27;9;7;
43280;PMS5003;62175;49.416;8.690;2023-05-07T13:05:57;5;4;
43280;PMS5003;62175;49.416;8.690;2023-05-07T13:08:34;7;6;
43280;PMS5003;62175;49.416;8.690;2023-05-07T13:11:08;6;6;
43280;PMS5003;62175;49.416;8.690;2023-05-07T13:13:36;7;6;
43280;PMS5003;62175;49.416;8.690;2023-05-07T13:16:05;6;6;
43280;PMS5003;62175;49.416;8.690;2023-05-07T13:18:34;5;5;
43280;PMS5003;62175;49.416;8.690;2023-05-07T13:21:03;4;4;
43280;PMS5003;62175;49.416;8.690;2023-05-07T13:23:31;4;4;
43280;PMS5003;62175;49.416;8.690;2023-05-07T13:25:58;6;6;
43280;PMS5003;62175;49.416;8.690;2023-05-07T13:28:46;5;5;
43280;PMS5003;62175;49.416;8.690;2023-05-07T13:31:13;5;5;
43280;PMS5003;62175;49.416;8.690;2023-05-07T13:33:40;5;4;
43280;PMS5003;62175;49.416;8.690;2023-05-07T13:36:08;6;6;
43280;PMS5003;62175;49.416;8.690;2023-05-07T13:38:35;6;5;
43280;PMS5003;62175;49.416;8.690;2023-05-07T13:41:04;4;4;
43280;PMS5003;62175;49.416;8.690;2023-05-07T13:43:31;5;5;
43280;PMS5003;62175;49.416;8.690;2023-05-07T13:45:58;7;7;
43280;PMS5003;62175;49.416;8.690;2023-05-07T13:48:25;6;6;
43280;PMS5003;62175;49.416;8.690;2023-05-07T13:50:53;6;5;
43280;PMS5003;62175;49.416;8.690;2023-05-07T13:53:20;7;7;
43280;PMS5003;62175;49.416;8.690;2023-05-07T13:55:47;7;6;
43280;PMS5003;62175;49.416;8.690;2023-05-07T13:58:14;4;4;
43280;PMS5003;62175;49.416;8.690;2023-05-07T14:00:41;5;5;
43280;PMS5003;62175;49.416;8.690;2023-05-07T14:03:08;7;7;
43280;PMS5003;62175;49.416;8.690;2023-05-07T16:54:26;10;9;
43280;PMS5003;62175;49.416;8.690;2023-05-07T16:56:53;7;7;
43280;PMS5003;62175;49.416;8.690;2023-05-07T16:59:19;12;11;
43280;PMS5003;62175;49.416;8.690;2023-05-07T17:01:46;5;5;
43280;PMS5003;62175;49.416;8.690;2023-05-07T17:16:43;4;4;
43280;PMS5003;62175;49.416;8.690;2023-05-07T17:19:09;3;3;
43280;PMS5003;62175;49.416;8.690;2023-05-07T17:21:35;4;3;
43280;PMS5003;62175;49.416;8.690;2023-05-07T17:24:03;3;3;
43280;PMS5003;62175;49.416;8.690;2023-05-07T17:26:30;4;4;
43280;PMS5003;62175;49.416;8.690;2023-05-07T17:28:56;3;3;
43280;PMS5003;62175;49.416;8.690;2023-05-07T17:37:38;3;3;
43280;PMS5003;62175;49.416;8.690;2023-05-07T17:55:39;3;3;
43280;PMS5003;62175;49.416;8.690;2023-05-07T17:59:00;3;3;
43280;PMS5003;62175;49.416;8.690;2023-05-07T18:02:44;3;2;
43280;PMS5003;62175;49.416;8.690;2023-05-07T18:05:22;3;3;
43280;PMS5003;62175;49.416;8.690;2023-05-07T22:02:57;4;4;
43280;PMS5003;62175;49.416;8.690;2023-05-07T22:05:25;4;2;
43280;PMS5003;62175;49.416;8.690;2023-05-07T22:07:53;5;5;
43280;PMS5003;62175;49.416;8.690;2023-05-07T22:10:22;4;4;
43280;PMS5003;62175;49.416;8.690;2023-05-07T22:12:50;3;3;
43280;PMS5003;62175;49.416;8.690;2023-05-07T22:15:17;3;3;
43280;PMS5003;62175;49.416;8.690;2023-05-07T22:17:45;5;5;
43280;PMS5003;62175;49.416;8.690;2023-05-07T22:20:11;4;3;
43280;PMS5003;62175;49.416;8.690;2023-05-07T22:22:47;4;4;
43280;PMS5003;62175;49.416;8.690;2023-05-07T22:25:15;3;3;
43280;PMS5003;62175;49.416;8.690;2023-05-07T22:27:42;3;3;
43280;PMS5003;62175;49.416;8.690;2023-05-07T22:30:10;4;4;
43280;PMS5003;62175;49.416;8.690;2023-05-07T22:32:38;4;4;
43280;PMS5003;62175;49.416;8.690;2023-05-07T22:35:07;4;4;
43280;PMS5003;62175;49.416;8.690;2023-05-07T22:37:35;5;4;
43280;PMS5003;62175;49.416;8.690;2023-05-07T22:40:02;5;4;
43280;PMS5003;62175;49.416;8.690;2023-05-07T22:42:30;5;5;
43280;PMS5003;62175;49.416;8.690;2023-05-07T22:44:57;4;4;
43280;PMS5003;62175;49.416;8.690;2023-05-07T22:47:24;5;5;
43280;PMS5003;62175;49.416;8.690;2023-05-07T22:49:53;3;3;
43280;PMS5003;62175;49.416;8.690;2023-05-07T22:52:20;4;4;
43280;PMS5003;62175;49.416;8.690;2023-05-07T22:54:48;3;3;
43280;PMS5003;62175;49.416;8.690;2023-05-07T22:57:16;1;1;
43280;PMS5003;62175;49.416;8.690;2023-05-07T22:59:43;4;3;
43280;PMS5003;62175;49.416;8.690;2023-05-07T23:02:10;5;5;
43280;PMS5003;62175;49.416;8.690;2023-05-07T23:04:37;6;5;
43280;PMS5003;62175;49.416;8.690;2023-05-07T23:07:04;3;3;
43280;PMS5003;62175;49.416;8.690;2023-05-07T23:09:31;4;4;
43280;PMS5003;62175;49.416;8.690;2023-05-07T23:11:58;4;4;
43280;PMS5003;62175;49.416;8.690;2023-05-07T23:14:25;3;3;
43280;PMS5003;62175;49.416;8.690;2023-05-07T23:16:52;4;4;
43280;PMS5003;62175;49.416;8.690;2023-05-07T23:19:19;5;5;
43280;PMS5003;62175;49.416;8.690;2023-05-07T23:21:46;5;5;
43280;PMS5003;62175;49.416;8.690;2023-05-07T23:24:14;4;3;
43280;PMS5003;62175;49.416;8.690;2023-05-07T23:26:41;4;4;
43280;PMS5003;62175;49.416;8.690;2023-05-07T23:29:08;4;3;
43280;PMS5003;62175;49.416;8.690;2023-05-07T23:31:35;3;3;
43280;PMS5003;62175;49.416;8.690;2023-05-07T23:34:02;2;2;
43280;PMS5003;62175;49.416;8.690;2023-05-07T23:36:29;4;4;
43280;PMS5003;62175;49.416;8.690;2023-05-07T23:38:57;4;4;
43280;PMS5003;62175;49.416;8.690;2023-05-07T23:41:24;4;4;
43280;PMS5003;62175;49.416;8.690;2023-05-07T23:43:51;3;3;
43280;PMS5003;62175;49.416;8.690;2023-05-07T23:46:18;5;5;
43280;PMS5003;62175;49.416;8.690;2023-05-07T23:48:45;4;3;
43280;PMS5003;62175;49.416;8.690;2023-05-07T23:51:11;4;4;
43280;PMS5003;62175;49.416;8.690;2023-05-07T23:53:38;4;4;
43280;PMS5003;62175;49.416;8.690;2023-05-07T23:56:06;3;3;
43280;PMS5003;62175;49.416;8.690;2023-05-07T23:58:33;4;4;
